sensor_id;sensor_type;location;lat;lon;timestamp;pressure;altitude;pressure_sealevel;temperature
67353;BMP180;54238;52.278;21.056;2023-05-24T00:00:19;100129.80;;;18.90
67353;BMP180;54238;52.278;21.056;2023-05-24T00:03:10;100128.40;;;18.90
67353;BMP180;54238;52.278;21.056;2023-05-24T00:05:41;100126.40;;;18.90
67353;BMP180;54238;52.278;21.056;2023-05-24T00:08:15;100123.80;;;18.90
67353;BMP180;54238;52.278;21.056;2023-05-24T00:10:44;100116.60;;;18.80
67353;BMP180;54238;52.278;21.056;2023-05-24T00:13:12;100120.20;;;18.80
67353;BMP180;54238;52.278;21.056;2023-05-24T00:15:41;100123.20;;;18.80
67353;BMP180;54238;52.278;21.056;2023-05-24T00:18:12;100122.60;;;18.80
67353;BMP180;54238;52.278;21.056;2023-05-24T00:20:44;100117.80;;;18.80
67353;BMP180;54238;52.278;21.056;2023-05-24T00:23:12;100118.40;;;18.80
67353;BMP180;54238;52.278;21.056;2023-05-24T00:25:41;100118.40;;;18.80
67353;BMP180;54238;52.278;21.056;2023-05-24T00:28:11;100115.00;;;18.80
67353;BMP180;54238;52.278;21.056;2023-05-24T00:30:43;100114.00;;;18.74
67353;BMP180;54238;52.278;21.056;2023-05-24T00:33:17;100110.20;;;18.70
67353;BMP180;54238;52.278;21.056;2023-05-24T00:35:46;100111.40;;;18.70
67353;BMP180;54238;52.278;21.056;2023-05-24T00:38:20;100108.80;;;18.72
67353;BMP180;54238;52.278;21.056;2023-05-24T00:40:50;100102.80;;;18.70
67353;BMP180;54238;52.278;21.056;2023-05-24T00:43:22;100101.60;;;18.70
67353;BMP180;54238;52.278;21.056;2023-05-24T00:48:39;100104.40;;;18.70
67353;BMP180;54238;52.278;21.056;2023-05-24T00:51:10;100100.60;;;18.60
67353;BMP180;54238;52.278;21.056;2023-05-24T00:53:40;100095.40;;;18.58
67353;BMP180;54238;52.278;21.056;2023-05-24T00:56:08;100100.20;;;18.50
67353;BMP180;54238;52.278;21.056;2023-05-24T00:58:37;100101.40;;;18.50
67353;BMP180;54238;52.278;21.056;2023-05-24T01:01:04;100100.00;;;18.50
67353;BMP180;54238;52.278;21.056;2023-05-24T01:03:32;100097.40;;;18.50
67353;BMP180;54238;52.278;21.056;2023-05-24T01:06:03;100098.40;;;18.44
67353;BMP180;54238;52.278;21.056;2023-05-24T01:19:53;100093.20;;;18.30
67353;BMP180;54238;52.278;21.056;2023-05-24T01:22:48;100095.00;;;18.30
67353;BMP180;54238;52.278;21.056;2023-05-24T01:28:17;100095.60;;;18.30
67353;BMP180;54238;52.278;21.056;2023-05-24T01:30:47;100096.40;;;18.30
67353;BMP180;54238;52.278;21.056;2023-05-24T01:33:20;100097.60;;;18.30
67353;BMP180;54238;52.278;21.056;2023-05-24T01:35:47;100102.00;;;18.28
67353;BMP180;54238;52.278;21.056;2023-05-24T01:38:18;100107.60;;;18.20
67353;BMP180;54238;52.278;21.056;2023-05-24T01:40:56;100105.60;;;18.20
67353;BMP180;54238;52.278;21.056;2023-05-24T01:43:39;100105.60;;;18.20
67353;BMP180;54238;52.278;21.056;2023-05-24T01:49:28;100107.80;;;18.20
67353;BMP180;54238;52.278;21.056;2023-05-24T01:52:07;100110.80;;;18.20
67353;BMP180;54238;52.278;21.056;2023-05-24T01:54:44;100113.20;;;18.20
67353;BMP180;54238;52.278;21.056;2023-05-24T01:57:18;100107.80;;;18.20
67353;BMP180;54238;52.278;21.056;2023-05-24T01:59:49;100108.20;;;18.20
67353;BMP180;54238;52.278;21.056;2023-05-24T02:02:18;100112.20;;;18.20
67353;BMP180;54238;52.278;21.056;2023-05-24T02:04:45;100110.00;;;18.10
67353;BMP180;54238;52.278;21.056;2023-05-24T02:07:17;100105.80;;;18.10
67353;BMP180;54238;52.278;21.056;2023-05-24T02:09:49;100111.60;;;18.10
67353;BMP180;54238;52.278;21.056;2023-05-24T02:12:16;100109.20;;;18.10
67353;BMP180;54238;52.278;21.056;2023-05-24T02:14:46;100114.40;;;18.10
67353;BMP180;54238;52.278;21.056;2023-05-24T02:17:17;100108.80;;;18.06
67353;BMP180;54238;52.278;21.056;2023-05-24T02:19:44;100108.00;;;18.06
67353;BMP180;54238;52.278;21.056;2023-05-24T02:22:15;100110.20;;;18.00
67353;BMP180;54238;52.278;21.056;2023-05-24T02:24:44;100109.80;;;18.00
67353;BMP180;54238;52.278;21.056;2023-05-24T02:27:11;100112.60;;;18.00
67353;BMP180;54238;52.278;21.056;2023-05-24T02:29:41;100115.60;;;18.00
67353;BMP180;54238;52.278;21.056;2023-05-24T02:32:08;100114.00;;;17.90
67353;BMP180;54238;52.278;21.056;2023-05-24T02:34:37;100116.20;;;17.90
67353;BMP180;54238;52.278;21.056;2023-05-24T02:37:08;100112.60;;;17.90
67353;BMP180;54238;52.278;21.056;2023-05-24T02:39:44;100115.60;;;17.80
67353;BMP180;54238;52.278;21.056;2023-05-24T02:42:14;100115.20;;;17.80
67353;BMP180;54238;52.278;21.056;2023-05-24T02:44:46;100113.00;;;17.70
67353;BMP180;54238;52.278;21.056;2023-05-24T02:47:20;100114.00;;;17.70
67353;BMP180;54238;52.278;21.056;2023-05-24T02:49:47;100113.80;;;17.70
67353;BMP180;54238;52.278;21.056;2023-05-24T02:52:17;100114.80;;;17.60
67353;BMP180;54238;52.278;21.056;2023-05-24T02:54:48;100113.20;;;17.60
67353;BMP180;54238;52.278;21.056;2023-05-24T02:57:15;100113.60;;;17.60
67353;BMP180;54238;52.278;21.056;2023-05-24T02:59:45;100113.60;;;17.60
67353;BMP180;54238;52.278;21.056;2023-05-24T03:02:14;100115.40;;;17.60
67353;BMP180;54238;52.278;21.056;2023-05-24T03:04:43;100113.40;;;17.60
67353;BMP180;54238;52.278;21.056;2023-05-24T03:07:13;100114.80;;;17.60
67353;BMP180;54238;52.278;21.056;2023-05-24T03:10:04;100111.00;;;17.60
67353;BMP180;54238;52.278;21.056;2023-05-24T03:12:34;100114.60;;;17.52
67353;BMP180;54238;52.278;21.056;2023-05-24T03:15:06;100116.80;;;17.60
67353;BMP180;54238;52.278;21.056;2023-05-24T03:17:34;100119.00;;;17.60
67353;BMP180;54238;52.278;21.056;2023-05-24T03:20:01;100119.80;;;17.60
67353;BMP180;54238;52.278;21.056;2023-05-24T03:22:32;100123.60;;;17.60
67353;BMP180;54238;52.278;21.056;2023-05-24T03:24:59;100121.80;;;17.60
67353;BMP180;54238;52.278;21.056;2023-05-24T03:27:28;100125.40;;;17.60
67353;BMP180;54238;52.278;21.056;2023-05-24T03:30:01;100125.20;;;17.60
67353;BMP180;54238;52.278;21.056;2023-05-24T03:32:32;100128.20;;;17.60
67353;BMP180;54238;52.278;21.056;2023-05-24T03:35:04;100127.00;;;17.60
67353;BMP180;54238;52.278;21.056;2023-05-24T03:37:36;100127.40;;;17.60
67353;BMP180;54238;52.278;21.056;2023-05-24T03:40:11;100129.20;;;17.60
67353;BMP180;54238;52.278;21.056;2023-05-24T03:42:39;100128.60;;;17.60
67353;BMP180;54238;52.278;21.056;2023-05-24T03:45:09;100126.00;;;17.60
67353;BMP180;54238;52.278;21.056;2023-05-24T03:47:36;100131.20;;;17.60
67353;BMP180;54238;52.278;21.056;2023-05-24T03:50:06;100129.00;;;17.66
67353;BMP180;54238;52.278;21.056;2023-05-24T03:52:36;100133.40;;;17.70
67353;BMP180;54238;52.278;21.056;2023-05-24T03:55:04;100135.00;;;17.70
67353;BMP180;54238;52.278;21.056;2023-05-24T03:57:32;100131.80;;;17.70
67353;BMP180;54238;52.278;21.056;2023-05-24T03:59:59;100133.80;;;17.70
67353;BMP180;54238;52.278;21.056;2023-05-24T04:02:26;100136.20;;;17.70
67353;BMP180;54238;52.278;21.056;2023-05-24T04:04:53;100134.60;;;17.70
67353;BMP180;54238;52.278;21.056;2023-05-24T04:07:26;100143.00;;;17.70
67353;BMP180;54238;52.278;21.056;2023-05-24T04:10:00;100141.40;;;17.80
67353;BMP180;54238;52.278;21.056;2023-05-24T04:12:32;100143.40;;;17.80
67353;BMP180;54238;52.278;21.056;2023-05-24T04:14:59;100143.40;;;17.80
67353;BMP180;54238;52.278;21.056;2023-05-24T04:17:30;100144.60;;;17.90
67353;BMP180;54238;52.278;21.056;2023-05-24T04:20:00;100144.60;;;17.90
67353;BMP180;54238;52.278;21.056;2023-05-24T04:22:29;100144.60;;;17.90
67353;BMP180;54238;52.278;21.056;2023-05-24T04:24:58;100147.80;;;17.90
67353;BMP180;54238;52.278;21.056;2023-05-24T04:27:29;100150.60;;;17.90
67353;BMP180;54238;52.278;21.056;2023-05-24T04:29:59;100152.20;;;17.90
67353;BMP180;54238;52.278;21.056;2023-05-24T04:32:26;100153.20;;;17.90
67353;BMP180;54238;52.278;21.056;2023-05-24T04:34:56;100159.40;;;17.90
67353;BMP180;54238;52.278;21.056;2023-05-24T04:37:25;100170.60;;;18.00
67353;BMP180;54238;52.278;21.056;2023-05-24T04:39:58;100175.20;;;18.00
67353;BMP180;54238;52.278;21.056;2023-05-24T04:42:27;100177.80;;;18.00
67353;BMP180;54238;52.278;21.056;2023-05-24T04:45:00;100179.20;;;18.00
67353;BMP180;54238;52.278;21.056;2023-05-24T04:47:35;100179.20;;;18.00
67353;BMP180;54238;52.278;21.056;2023-05-24T04:50:03;100178.20;;;18.00
67353;BMP180;54238;52.278;21.056;2023-05-24T04:52:31;100175.80;;;18.00
67353;BMP180;54238;52.278;21.056;2023-05-24T04:54:59;100177.60;;;18.10
67353;BMP180;54238;52.278;21.056;2023-05-24T04:57:28;100177.40;;;18.10
67353;BMP180;54238;52.278;21.056;2023-05-24T04:59:58;100180.40;;;18.10
67353;BMP180;54238;52.278;21.056;2023-05-24T05:02:27;100183.00;;;18.10
67353;BMP180;54238;52.278;21.056;2023-05-24T05:04:59;100183.20;;;18.16
67353;BMP180;54238;52.278;21.056;2023-05-24T05:07:29;100186.00;;;18.20
67353;BMP180;54238;52.278;21.056;2023-05-24T05:10:01;100182.80;;;18.20
67353;BMP180;54238;52.278;21.056;2023-05-24T05:12:31;100188.20;;;18.20
67353;BMP180;54238;52.278;21.056;2023-05-24T05:15:00;100195.00;;;18.20
67353;BMP180;54238;52.278;21.056;2023-05-24T05:17:30;100196.00;;;18.20
67353;BMP180;54238;52.278;21.056;2023-05-24T05:19:59;100198.40;;;18.20
67353;BMP180;54238;52.278;21.056;2023-05-24T05:22:29;100199.40;;;18.30
67353;BMP180;54238;52.278;21.056;2023-05-24T05:24:56;100195.80;;;18.32
67353;BMP180;54238;52.278;21.056;2023-05-24T05:27:28;100195.60;;;18.40
67353;BMP180;54238;52.278;21.056;2023-05-24T05:29:58;100196.60;;;18.48
67353;BMP180;54238;52.278;21.056;2023-05-24T05:32:30;100200.60;;;18.50
67353;BMP180;54238;52.278;21.056;2023-05-24T05:34:57;100202.20;;;18.56
67353;BMP180;54238;52.278;21.056;2023-05-24T05:37:26;100201.60;;;18.60
67353;BMP180;54238;52.278;21.056;2023-05-24T05:39:58;100201.40;;;18.70
67353;BMP180;54238;52.278;21.056;2023-05-24T05:42:25;100204.00;;;18.78
67353;BMP180;54238;52.278;21.056;2023-05-24T05:44:57;100207.00;;;18.84
67353;BMP180;54238;52.278;21.056;2023-05-24T05:47:26;100207.00;;;18.90
67353;BMP180;54238;52.278;21.056;2023-05-24T05:49:56;100215.40;;;19.00
67353;BMP180;54238;52.278;21.056;2023-05-24T05:52:23;100214.60;;;19.10
67353;BMP180;54238;52.278;21.056;2023-05-24T05:54:52;100214.80;;;19.20
67353;BMP180;54238;52.278;21.056;2023-05-24T05:57:22;100216.20;;;19.30
67353;BMP180;54238;52.278;21.056;2023-05-24T05:59:50;100217.40;;;19.40
67353;BMP180;54238;52.278;21.056;2023-05-24T06:02:17;100224.60;;;19.50
67353;BMP180;54238;52.278;21.056;2023-05-24T06:04:51;100227.00;;;19.60
67353;BMP180;54238;52.278;21.056;2023-05-24T06:07:18;100230.60;;;19.70
67353;BMP180;54238;52.278;21.056;2023-05-24T06:09:45;100234.40;;;19.74
67353;BMP180;54238;52.278;21.056;2023-05-24T06:12:13;100237.20;;;19.80
67353;BMP180;54238;52.278;21.056;2023-05-24T06:14:40;100236.60;;;19.90
67353;BMP180;54238;52.278;21.056;2023-05-24T06:17:07;100234.60;;;19.90
67353;BMP180;54238;52.278;21.056;2023-05-24T06:19:37;100240.80;;;20.00
67353;BMP180;54238;52.278;21.056;2023-05-24T06:22:06;100243.40;;;20.06
67353;BMP180;54238;52.278;21.056;2023-05-24T06:24:36;100250.80;;;20.10
67353;BMP180;54238;52.278;21.056;2023-05-24T06:27:06;100248.20;;;20.24
67353;BMP180;54238;52.278;21.056;2023-05-24T06:29:33;100246.00;;;20.40
67353;BMP180;54238;52.278;21.056;2023-05-24T06:32:00;100250.00;;;20.50
67353;BMP180;54238;52.278;21.056;2023-05-24T06:34:27;100251.80;;;20.70
67353;BMP180;54238;52.278;21.056;2023-05-24T06:37:02;100251.00;;;20.80
67353;BMP180;54238;52.278;21.056;2023-05-24T06:39:36;100255.00;;;21.00
67353;BMP180;54238;52.278;21.056;2023-05-24T06:42:07;100257.60;;;21.20
67353;BMP180;54238;52.278;21.056;2023-05-24T06:44:33;100265.20;;;21.32
67353;BMP180;54238;52.278;21.056;2023-05-24T06:47:03;100262.00;;;21.50
67353;BMP180;54238;52.278;21.056;2023-05-24T06:49:33;100265.60;;;21.70
67353;BMP180;54238;52.278;21.056;2023-05-24T06:52:03;100272.20;;;21.82
67353;BMP180;54238;52.278;21.056;2023-05-24T06:54:33;100274.00;;;22.00
67353;BMP180;54238;52.278;21.056;2023-05-24T06:57:03;100270.00;;;22.10
67353;BMP180;54238;52.278;21.056;2023-05-24T06:59:30;100279.20;;;22.30
67353;BMP180;54238;52.278;21.056;2023-05-24T07:01:57;100281.20;;;22.40
67353;BMP180;54238;52.278;21.056;2023-05-24T07:04:30;100279.00;;;22.42
67353;BMP180;54238;52.278;21.056;2023-05-24T07:06:59;100286.40;;;22.40
67353;BMP180;54238;52.278;21.056;2023-05-24T07:09:27;100285.00;;;22.40
67353;BMP180;54238;52.278;21.056;2023-05-24T07:11:54;100285.00;;;22.52
67353;BMP180;54238;52.278;21.056;2023-05-24T07:14:26;100287.40;;;22.68
67353;BMP180;54238;52.278;21.056;2023-05-24T07:16:55;100283.80;;;22.76
67353;BMP180;54238;52.278;21.056;2023-05-24T07:19:27;100287.40;;;22.88
67353;BMP180;54238;52.278;21.056;2023-05-24T07:21:55;100289.60;;;23.00
67353;BMP180;54238;52.278;21.056;2023-05-24T07:24:23;100296.80;;;23.08
67353;BMP180;54238;52.278;21.056;2023-05-24T07:26:55;100299.00;;;23.20
67353;BMP180;54238;52.278;21.056;2023-05-24T07:29:25;100299.40;;;23.30
67353;BMP180;54238;52.278;21.056;2023-05-24T07:31:55;100305.00;;;23.44
67353;BMP180;54238;52.278;21.056;2023-05-24T07:34:25;100309.60;;;23.60
67353;BMP180;54238;52.278;21.056;2023-05-24T07:36:58;100312.60;;;23.70
67353;BMP180;54238;52.278;21.056;2023-05-24T07:39:31;100314.40;;;23.90
67353;BMP180;54238;52.278;21.056;2023-05-24T07:41:58;100312.60;;;24.04
67353;BMP180;54238;52.278;21.056;2023-05-24T07:44:28;100317.00;;;24.20
67353;BMP180;54238;52.278;21.056;2023-05-24T07:46:55;100321.20;;;24.30
67353;BMP180;54238;52.278;21.056;2023-05-24T07:49:23;100316.80;;;24.30
67353;BMP180;54238;52.278;21.056;2023-05-24T07:51:54;100317.80;;;24.32
67353;BMP180;54238;52.278;21.056;2023-05-24T07:54:30;100325.80;;;24.40
67353;BMP180;54238;52.278;21.056;2023-05-24T07:56:57;100330.60;;;24.50
67353;BMP180;54238;52.278;21.056;2023-05-24T07:59:27;100339.40;;;24.60
67353;BMP180;54238;52.278;21.056;2023-05-24T08:01:55;100342.40;;;24.52
67353;BMP180;54238;52.278;21.056;2023-05-24T08:04:32;100343.20;;;24.48
67353;BMP180;54238;52.278;21.056;2023-05-24T08:07:05;100343.80;;;24.50
67353;BMP180;54238;52.278;21.056;2023-05-24T08:09:32;100347.80;;;24.56
67353;BMP180;54238;52.278;21.056;2023-05-24T08:12:05;100344.20;;;24.60
67353;BMP180;54238;52.278;21.056;2023-05-24T08:14:37;100343.60;;;24.60
67353;BMP180;54238;52.278;21.056;2023-05-24T08:17:06;100347.60;;;24.70
67353;BMP180;54238;52.278;21.056;2023-05-24T08:19:36;100343.20;;;24.72
67353;BMP180;54238;52.278;21.056;2023-05-24T08:22:03;100341.80;;;24.78
67353;BMP180;54238;52.278;21.056;2023-05-24T08:24:32;100343.80;;;24.90
67353;BMP180;54238;52.278;21.056;2023-05-24T08:27:03;100347.40;;;25.00
67353;BMP180;54238;52.278;21.056;2023-05-24T08:29:30;100353.60;;;25.10
67353;BMP180;54238;52.278;21.056;2023-05-24T08:32:05;100353.40;;;25.20
67353;BMP180;54238;52.278;21.056;2023-05-24T08:34:36;100356.20;;;25.40
67353;BMP180;54238;52.278;21.056;2023-05-24T08:37:07;100355.00;;;25.60
67353;BMP180;54238;52.278;21.056;2023-05-24T08:39:39;100360.00;;;25.70
67353;BMP180;54238;52.278;21.056;2023-05-24T08:42:08;100359.00;;;25.80
67353;BMP180;54238;52.278;21.056;2023-05-24T08:44:52;100362.00;;;26.00
67353;BMP180;54238;52.278;21.056;2023-05-24T08:47:22;100367.00;;;26.20
67353;BMP180;54238;52.278;21.056;2023-05-24T08:53:14;100371.00;;;26.78
67353;BMP180;54238;52.278;21.056;2023-05-24T08:55:44;100364.60;;;26.82
67353;BMP180;54238;52.278;21.056;2023-05-24T08:58:17;100370.00;;;26.90
67353;BMP180;54238;52.278;21.056;2023-05-24T09:00:47;100373.40;;;27.00
67353;BMP180;54238;52.278;21.056;2023-05-24T09:03:15;100373.40;;;27.00
67353;BMP180;54238;52.278;21.056;2023-05-24T09:05:45;100368.00;;;27.06
67353;BMP180;54238;52.278;21.056;2023-05-24T09:08:13;100371.20;;;27.20
67353;BMP180;54238;52.278;21.056;2023-05-24T09:10:44;100370.80;;;27.22
67353;BMP180;54238;52.278;21.056;2023-05-24T09:13:18;100375.00;;;27.30
67353;BMP180;54238;52.278;21.056;2023-05-24T09:15:45;100375.20;;;27.40
67353;BMP180;54238;52.278;21.056;2023-05-24T09:18:14;100379.40;;;27.50
67353;BMP180;54238;52.278;21.056;2023-05-24T09:20:41;100381.60;;;27.60
67353;BMP180;54238;52.278;21.056;2023-05-24T09:23:16;100389.20;;;27.60
67353;BMP180;54238;52.278;21.056;2023-05-24T09:25:45;100390.20;;;27.60
67353;BMP180;54238;52.278;21.056;2023-05-24T09:28:18;100394.20;;;27.70
67353;BMP180;54238;52.278;21.056;2023-05-24T09:31:00;100391.00;;;27.80
67353;BMP180;54238;52.278;21.056;2023-05-24T09:34:02;100392.80;;;28.00
67353;BMP180;54238;52.278;21.056;2023-05-24T09:36:36;100394.40;;;28.20
67353;BMP180;54238;52.278;21.056;2023-05-24T09:39:09;100393.40;;;28.52
67353;BMP180;54238;52.278;21.056;2023-05-24T09:41:42;100399.00;;;28.88
67353;BMP180;54238;52.278;21.056;2023-05-24T09:44:12;100405.00;;;29.16
67353;BMP180;54238;52.278;21.056;2023-05-24T09:47:09;100401.80;;;29.38
67353;BMP180;54238;52.278;21.056;2023-05-24T09:49:39;100405.60;;;29.66
67353;BMP180;54238;52.278;21.056;2023-05-24T09:52:13;100407.40;;;29.74
67353;BMP180;54238;52.278;21.056;2023-05-24T09:54:42;100407.60;;;29.78
67353;BMP180;54238;52.278;21.056;2023-05-24T09:57:09;100407.40;;;29.70
67353;BMP180;54238;52.278;21.056;2023-05-24T09:59:43;100403.00;;;29.60
67353;BMP180;54238;52.278;21.056;2023-05-24T10:02:10;100403.00;;;29.50
67353;BMP180;54238;52.278;21.056;2023-05-24T10:04:46;100402.60;;;29.40
67353;BMP180;54238;52.278;21.056;2023-05-24T10:07:16;100404.20;;;29.26
67353;BMP180;54238;52.278;21.056;2023-05-24T10:09:49;100401.20;;;29.10
67353;BMP180;54238;52.278;21.056;2023-05-24T10:12:21;100405.60;;;29.00
67353;BMP180;54238;52.278;21.056;2023-05-24T10:15:23;100403.00;;;28.90
67353;BMP180;54238;52.278;21.056;2023-05-24T10:17:59;100405.80;;;28.90
67353;BMP180;54238;52.278;21.056;2023-05-24T10:20:29;100401.00;;;28.90
67353;BMP180;54238;52.278;21.056;2023-05-24T10:23:06;100400.80;;;28.90
67353;BMP180;54238;52.278;21.056;2023-05-24T10:25:40;100400.40;;;28.90
67353;BMP180;54238;52.278;21.056;2023-05-24T10:28:12;100401.00;;;28.90
67353;BMP180;54238;52.278;21.056;2023-05-24T10:31:00;100402.80;;;28.90
67353;BMP180;54238;52.278;21.056;2023-05-24T10:33:42;100403.80;;;28.90
67353;BMP180;54238;52.278;21.056;2023-05-24T10:36:13;100408.40;;;28.90
67353;BMP180;54238;52.278;21.056;2023-05-24T10:38:47;100411.80;;;28.80
67353;BMP180;54238;52.278;21.056;2023-05-24T10:41:19;100414.40;;;28.80
67353;BMP180;54238;52.278;21.056;2023-05-24T10:43:52;100409.00;;;28.86
67353;BMP180;54238;52.278;21.056;2023-05-24T10:46:24;100414.00;;;28.90
67353;BMP180;54238;52.278;21.056;2023-05-24T10:48:59;100413.00;;;29.00
67353;BMP180;54238;52.278;21.056;2023-05-24T10:51:37;100413.20;;;29.10
67353;BMP180;54238;52.278;21.056;2023-05-24T10:54:14;100422.00;;;28.96
67353;BMP180;54238;52.278;21.056;2023-05-24T10:56:54;100417.80;;;28.80
67353;BMP180;54238;52.278;21.056;2023-05-24T10:59:40;100423.60;;;28.60
67353;BMP180;54238;52.278;21.056;2023-05-24T11:02:18;100417.40;;;28.40
67353;BMP180;54238;52.278;21.056;2023-05-24T11:04:48;100426.20;;;28.22
67353;BMP180;54238;52.278;21.056;2023-05-24T11:07:17;100430.00;;;28.20
67353;BMP180;54238;52.278;21.056;2023-05-24T11:09:51;100431.40;;;28.10
67353;BMP180;54238;52.278;21.056;2023-05-24T11:12:30;100426.80;;;28.10
67353;BMP180;54238;52.278;21.056;2023-05-24T11:15:00;100427.80;;;28.10
67353;BMP180;54238;52.278;21.056;2023-05-24T11:18:20;100428.40;;;28.30
67353;BMP180;54238;52.278;21.056;2023-05-24T11:20:52;100427.00;;;28.62
67353;BMP180;54238;52.278;21.056;2023-05-24T11:23:20;100428.60;;;28.90
67353;BMP180;54238;52.278;21.056;2023-05-24T11:25:48;100437.60;;;28.96
67353;BMP180;54238;52.278;21.056;2023-05-24T11:28:15;100429.60;;;29.00
67353;BMP180;54238;52.278;21.056;2023-05-24T11:30:50;100436.40;;;28.90
67353;BMP180;54238;52.278;21.056;2023-05-24T11:33:25;100435.00;;;28.80
67353;BMP180;54238;52.278;21.056;2023-05-24T11:35:54;100435.80;;;28.60
67353;BMP180;54238;52.278;21.056;2023-05-24T11:38:26;100440.00;;;28.60
67353;BMP180;54238;52.278;21.056;2023-05-24T11:40:59;100443.80;;;28.70
67353;BMP180;54238;52.278;21.056;2023-05-24T11:43:31;100437.40;;;28.90
67353;BMP180;54238;52.278;21.056;2023-05-24T11:45:58;100446.40;;;29.18
67353;BMP180;54238;52.278;21.056;2023-05-24T11:48:27;100444.20;;;29.40
67353;BMP180;54238;52.278;21.056;2023-05-24T11:50:57;100449.60;;;29.50
67353;BMP180;54238;52.278;21.056;2023-05-24T11:53:27;100446.40;;;29.32
67353;BMP180;54238;52.278;21.056;2023-05-24T11:55:56;100444.20;;;29.02
67353;BMP180;54238;52.278;21.056;2023-05-24T11:58:43;100445.20;;;28.52
67353;BMP180;54238;52.278;21.056;2023-05-24T12:01:25;100448.00;;;28.10
67353;BMP180;54238;52.278;21.056;2023-05-24T12:03:55;100445.80;;;28.10
67353;BMP180;54238;52.278;21.056;2023-05-24T12:06:39;100444.40;;;28.28
67353;BMP180;54238;52.278;21.056;2023-05-24T12:09:08;100448.20;;;28.60
67353;BMP180;54238;52.278;21.056;2023-05-24T12:11:50;100447.60;;;28.98
67353;BMP180;54238;52.278;21.056;2023-05-24T12:16:54;100444.60;;;29.82
67353;BMP180;54238;52.278;21.056;2023-05-24T12:19:31;100447.40;;;30.20
67353;BMP180;54238;52.278;21.056;2023-05-24T12:22:08;100445.20;;;30.60
67353;BMP180;54238;52.278;21.056;2023-05-24T12:24:37;100453.20;;;30.90
67353;BMP180;54238;52.278;21.056;2023-05-24T12:27:07;100447.40;;;31.24
67353;BMP180;54238;52.278;21.056;2023-05-24T12:29:37;100448.20;;;31.60
67353;BMP180;54238;52.278;21.056;2023-05-24T12:32:14;100445.20;;;31.70
67353;BMP180;54238;52.278;21.056;2023-05-24T12:34:48;100453.60;;;31.90
67353;BMP180;54238;52.278;21.056;2023-05-24T12:37:23;100451.00;;;32.10
67353;BMP180;54238;52.278;21.056;2023-05-24T12:39:52;100447.00;;;32.20
67353;BMP180;54238;52.278;21.056;2023-05-24T12:42:21;100447.80;;;32.40
67353;BMP180;54238;52.278;21.056;2023-05-24T12:44:56;100442.20;;;32.40
67353;BMP180;54238;52.278;21.056;2023-05-24T12:47:25;100447.00;;;32.84
67353;BMP180;54238;52.278;21.056;2023-05-24T12:49:55;100444.00;;;33.10
67353;BMP180;54238;52.278;21.056;2023-05-24T12:52:29;100442.40;;;33.40
67353;BMP180;54238;52.278;21.056;2023-05-24T12:55:01;100442.80;;;33.60
67353;BMP180;54238;52.278;21.056;2023-05-24T12:57:28;100446.00;;;33.70
67353;BMP180;54238;52.278;21.056;2023-05-24T13:00:00;100445.60;;;33.66
67353;BMP180;54238;52.278;21.056;2023-05-24T13:02:27;100441.40;;;33.70
67353;BMP180;54238;52.278;21.056;2023-05-24T13:04:54;100442.40;;;33.60
67353;BMP180;54238;52.278;21.056;2023-05-24T13:07:22;100441.00;;;33.50
67353;BMP180;54238;52.278;21.056;2023-05-24T13:09:51;100434.60;;;33.70
67353;BMP180;54238;52.278;21.056;2023-05-24T13:12:18;100431.40;;;33.80
67353;BMP180;54238;52.278;21.056;2023-05-24T13:14:46;100435.20;;;33.92
67353;BMP180;54238;52.278;21.056;2023-05-24T13:17:15;100436.40;;;34.20
67353;BMP180;54238;52.278;21.056;2023-05-24T13:19:43;100443.20;;;34.28
67353;BMP180;54238;52.278;21.056;2023-05-24T13:22:10;100441.40;;;33.98
67353;BMP180;54238;52.278;21.056;2023-05-24T13:24:46;100441.20;;;33.50
67353;BMP180;54238;52.278;21.056;2023-05-24T13:27:16;100442.00;;;33.04
67353;BMP180;54238;52.278;21.056;2023-05-24T13:29:45;100442.20;;;32.50
67353;BMP180;54238;52.278;21.056;2023-05-24T13:32:12;100445.40;;;32.00
67353;BMP180;54238;52.278;21.056;2023-05-24T13:34:43;100451.40;;;31.54
67353;BMP180;54238;52.278;21.056;2023-05-24T13:37:15;100446.40;;;31.10
67353;BMP180;54238;52.278;21.056;2023-05-24T13:39:42;100452.20;;;30.62
67353;BMP180;54238;52.278;21.056;2023-05-24T13:42:12;100454.40;;;30.14
67353;BMP180;54238;52.278;21.056;2023-05-24T13:44:40;100454.80;;;29.70
67353;BMP180;54238;52.278;21.056;2023-05-24T13:47:10;100450.20;;;29.40
67353;BMP180;54238;52.278;21.056;2023-05-24T13:49:39;100449.20;;;29.10
67353;BMP180;54238;52.278;21.056;2023-05-24T13:52:08;100450.80;;;28.70
67353;BMP180;54238;52.278;21.056;2023-05-24T13:54:38;100448.60;;;28.32
67353;BMP180;54238;52.278;21.056;2023-05-24T13:57:08;100446.40;;;28.08
67353;BMP180;54238;52.278;21.056;2023-05-24T13:59:37;100447.80;;;27.90
67353;BMP180;54238;52.278;21.056;2023-05-24T14:02:04;100451.00;;;27.70
67353;BMP180;54238;52.278;21.056;2023-05-24T14:04:39;100449.80;;;27.50
67353;BMP180;54238;52.278;21.056;2023-05-24T14:07:08;100453.80;;;27.40
67353;BMP180;54238;52.278;21.056;2023-05-24T14:09:35;100452.00;;;27.30
67353;BMP180;54238;52.278;21.056;2023-05-24T14:12:05;100459.40;;;27.12
67353;BMP180;54238;52.278;21.056;2023-05-24T14:14:33;100456.80;;;27.00
67353;BMP180;54238;52.278;21.056;2023-05-24T14:17:04;100458.60;;;26.90
67353;BMP180;54238;52.278;21.056;2023-05-24T14:19:31;100465.00;;;26.76
67353;BMP180;54238;52.278;21.056;2023-05-24T14:22:01;100468.20;;;26.70
67353;BMP180;54238;52.278;21.056;2023-05-24T14:24:33;100467.60;;;26.70
67353;BMP180;54238;52.278;21.056;2023-05-24T14:27:07;100469.40;;;26.60
67353;BMP180;54238;52.278;21.056;2023-05-24T14:29:34;100471.60;;;26.60
67353;BMP180;54238;52.278;21.056;2023-05-24T14:32:04;100473.20;;;26.60